Arklow Raider — EIXS — position and weather

sailwx.info

Track history (hours):
 
Tides and Currents Weather Stations Pressure Air Temp Water Temp Dewpoint Dewpoint Depression Visibility Wind Speed Wind Dir Waves Ship Positions

Arklow Raider

Last reported at 2014-Dec-22 20:09 UTC. Time now 2014-Dec-22 22:06 UTC.
Position N 53°48' E 000°54'.

Length 90 m; draft 6.1 m.

Type: Ship. MMSI: 250001268.

Date/timePositionNaut miles runAvg speedWind from/ knotsBaromVisibWave heightAir tempDewpointWater temp
2014-Dec-22 20:09N 53°48' E 000°54'610.2
2014-Dec-22 19:33N 53°51' E 000°46'1110.7
2014-Dec-22 18:33N 53°58' E 000°32'1111.3
2014-Dec-22 17:33N 54°06' E 000°18'1212.1
2014-Dec-22 16:33N 54°14' E 000°02'1312.5
2014-Dec-22 15:33N 54°22' W 000°14'1312.6
2014-Dec-22 14:33N 54°30' W 000°30'1211.8
2014-Dec-22 13:33N 54°36' W 000°48'12 3.8
2014-Dec-22 10:20N 54°36' W 001°09'0 0.0
2014-Dec-22 09:17N 54°36' W 001°09'0 0.0
2014-Dec-22 08:17N 54°36' W 001°09'0 0.0
2014-Dec-22 07:32N 54°36' W 001°09'0 0.0
2014-Dec-21 11:29N 54°36' W 001°09'0 0.0
2014-Dec-21 10:26N 54°36' W 001°09'0 0.0
2014-Dec-21 09:29N 54°36' W 001°09'1 1.5
2014-Dec-21 08:33N 54°38' W 001°09'10 9.4
2014-Dec-21 07:32N 54°40' W 000°54'1511.7
2014-Dec-21 06:15N 54°32' W 000°32'811.5
2014-Dec-21 05:33N 54°25' W 000°24'1110.9
2014-Dec-21 04:33N 54°17' W 000°12'1010.5
2014-Dec-21 03:33N 54°09' W 000°00'1010.0
2014-Dec-21 02:33N 54°01' E 000°10'9 9.1
2014-Dec-21 01:33N 53°53' E 000°17'9 9.2
2014-Dec-21 00:33N 53°45' E 000°26'1010.3
2014-Dec-20 23:33N 53°37' E 000°36'3511.8
2014-Dec-20 20:33N 53°10' E 001°16'10 9.7
2014-Dec-20 19:34N 53°03' E 001°26'8 7.8
2014-Dec-20 18:33N 52°57' E 001°35'7 7.0
2014-Dec-20 17:33N 52°53' E 001°43'8 7.6
2014-Dec-20 16:30N 52°48' E 001°54'8 8.3
2014-Dec-20 15:33N 52°40' E 001°56'1110.9
2014-Dec-20 14:33N 52°29' E 001°53'1413.4
2014-Dec-20 13:33N 52°16' E 001°46'1414.1
2014-Dec-20 12:33N 52°03' E 001°39'1413.6
2014-Dec-20 11:33N 51°50' E 001°33'1313.2
2014-Dec-20 10:34N 51°40' E 001°18'1212.1
2014-Dec-20 09:33N 51°33' E 001°03'1010.5
2014-Dec-20 08:34N 51°28' E 000°48'10 9.8
2014-Dec-20 07:34N 51°24' E 000°34'2 1.8
2014-Dec-20 06:31N 51°24' E 000°31'0 0.0
2014-Dec-20 05:31N 51°24' E 000°31'0 0.0
2014-Dec-20 04:31N 51°24' E 000°31'0 0.0
2014-Dec-20 03:31N 51°24' E 000°31'0 0.0
2014-Dec-20 02:31N 51°24' E 000°31'0 0.0
2014-Dec-20 01:31N 51°24' E 000°31'0 0.0
2014-Dec-20 00:31N 51°24' E 000°31'0 0.0
2014-Dec-19 23:31N 51°24' E 000°31'0 0.0
2014-Dec-19 22:28N 51°24' E 000°31'0 0.0
2014-Dec-19 21:22N 51°24' E 000°31'0 0.0
2014-Dec-19 20:31N 51°24' E 000°31'0 0.0
2014-Dec-19 19:31N 51°24' E 000°31'0 0.0
2014-Dec-19 18:31N 51°24' E 000°31'0 0.0
2014-Dec-19 17:31N 51°24' E 000°31'0 0.0
2014-Dec-19 16:31N 51°24' E 000°31'0 0.0
2014-Dec-19 15:31N 51°24' E 000°31'0 0.0
2014-Dec-19 14:28N 51°24' E 000°31'0 0.0
2014-Dec-19 13:31N 51°24' E 000°31'0 0.0
2014-Dec-19 12:31N 51°24' E 000°31'0 0.0
2014-Dec-19 11:31N 51°24' E 000°31'0 0.0
2014-Dec-19 10:31N 51°24' E 000°31'0 0.0
2014-Dec-19 09:31N 51°24' E 000°31'0 0.0
2014-Dec-19 08:31N 51°24' E 000°31'0 0.0
2014-Dec-19 07:31N 51°24' E 000°31'0 0.0
2014-Dec-19 06:31N 51°24' E 000°31'0 0.0
2014-Dec-19 05:31N 51°24' E 000°31'0 0.0
2014-Dec-19 04:31N 51°24' E 000°31'0 0.0
2014-Dec-19 03:31N 51°24' E 000°31'0 0.0
2014-Dec-19 02:31N 51°24' E 000°31'0 0.0
2014-Dec-19 01:28N 51°24' E 000°31'0 0.0
2014-Dec-19 00:31N 51°24' E 000°31'0 0.0
2014-Dec-18 23:31N 51°24' E 000°31'0 0.0
2014-Dec-18 22:31N 51°24' E 000°31'0 0.0
2014-Dec-18 21:31N 51°24' E 000°31'0 0.0
2014-Dec-18 20:31N 51°24' E 000°31'0 0.0
2014-Dec-18 19:31N 51°24' E 000°31'0 0.0
2014-Dec-18 18:31N 51°24' E 000°31'0 0.0
2014-Dec-18 17:28N 51°24' E 000°31'0 0.0
2014-Dec-18 16:31N 51°24' E 000°31'0 0.0
2014-Dec-18 15:31N 51°24' E 000°31'0 0.0
2014-Dec-18 14:31N 51°24' E 000°31'0 0.0
2014-Dec-18 13:31N 51°24' E 000°31'0 0.0
2014-Dec-18 12:31N 51°24' E 000°31'0 0.0
2014-Dec-18 11:31N 51°24' E 000°31'0 0.0
2014-Dec-18 10:28N 51°24' E 000°31'0 0.0
2014-Dec-18 09:28N 51°24' E 000°31'0 0.0
2014-Dec-18 08:31N 51°24' E 000°31'0 0.0
2014-Dec-18 07:32N 51°24' E 000°31'2 1.8
2014-Dec-18 06:34N 51°24' E 000°33'9 8.7
2014-Dec-18 05:33N 51°28' E 000°46'7 7.4
2014-Dec-18 04:33N 51°29' E 000°58'7 7.0
2014-Dec-18 03:33N 51°29' E 001°09'7 6.7
2014-Dec-18 02:33N 51°29' E 001°20'5 5.2
2014-Dec-18 01:33N 51°28' E 001°28'4 3.8
2014-Dec-18 00:34N 51°25' E 001°32'4 4.4
2014-Dec-17 23:33N 51°22' E 001°36'6 5.6
2014-Dec-17 22:34N 51°16' E 001°39'7 7.4
2014-Dec-17 21:33N 51°09' E 001°42'8 8.5
2014-Dec-17 20:34N 51°02' E 001°34'9 9.1
2014-Dec-17 19:33N 50°55' E 001°25'283 7.2
2014-Dec-16 04:18N 51°55' W 005°59'11211.4
2014-Dec-15 18:29N 53°46' W 005°58'1111.6
2014-Dec-15 17:29N 53°58' W 006°02'  
2014-Dec-12 20:28N 54°02' W 006°07'  
Track history (hours):
 
Tides and Currents Weather Stations Pressure Air Temp Water Temp Dewpoint Dewpoint Depression Visibility Wind Speed Wind Dir Waves Ship Positions

Arklow Raider

Last reported at 2014-Dec-22 20:09 UTC. Time now 2014-Dec-22 22:06 UTC.
Position N 53°48' E 000°54'.

Length 90 m; draft 6.1 m.

Type: Ship. MMSI: 250001268.

Date/timePositionNaut miles runAvg speedWind from/ knotsBaromVisibWave heightAir tempDewpointWater temp
2014-Dec-22 20:09N 53°48' E 000°54'610.2
2014-Dec-22 19:33N 53°51' E 000°46'1110.7
2014-Dec-22 18:33N 53°58' E 000°32'1111.3
2014-Dec-22 17:33N 54°06' E 000°18'1212.1
2014-Dec-22 16:33N 54°14' E 000°02'1312.5
2014-Dec-22 15:33N 54°22' W 000°14'1312.6
2014-Dec-22 14:33N 54°30' W 000°30'1211.8
2014-Dec-22 13:33N 54°36' W 000°48'12 3.8
2014-Dec-22 10:20N 54°36' W 001°09'0 0.0
2014-Dec-22 09:17N 54°36' W 001°09'0 0.0
2014-Dec-22 08:17N 54°36' W 001°09'0 0.0
2014-Dec-22 07:32N 54°36' W 001°09'0 0.0
2014-Dec-21 11:29N 54°36' W 001°09'0 0.0
2014-Dec-21 10:26N 54°36' W 001°09'0 0.0
2014-Dec-21 09:29N 54°36' W 001°09'1 1.5
2014-Dec-21 08:33N 54°38' W 001°09'10 9.4
2014-Dec-21 07:32N 54°40' W 000°54'1511.7
2014-Dec-21 06:15N 54°32' W 000°32'811.5
2014-Dec-21 05:33N 54°25' W 000°24'1110.9
2014-Dec-21 04:33N 54°17' W 000°12'1010.5
2014-Dec-21 03:33N 54°09' W 000°00'1010.0
2014-Dec-21 02:33N 54°01' E 000°10'9 9.1
2014-Dec-21 01:33N 53°53' E 000°17'9 9.2
2014-Dec-21 00:33N 53°45' E 000°26'1010.3
2014-Dec-20 23:33N 53°37' E 000°36'3511.8
2014-Dec-20 20:33N 53°10' E 001°16'10 9.7
2014-Dec-20 19:34N 53°03' E 001°26'8 7.8
2014-Dec-20 18:33N 52°57' E 001°35'7 7.0
2014-Dec-20 17:33N 52°53' E 001°43'8 7.6
2014-Dec-20 16:30N 52°48' E 001°54'8 8.3
2014-Dec-20 15:33N 52°40' E 001°56'1110.9
2014-Dec-20 14:33N 52°29' E 001°53'1413.4
2014-Dec-20 13:33N 52°16' E 001°46'1414.1
2014-Dec-20 12:33N 52°03' E 001°39'1413.6
2014-Dec-20 11:33N 51°50' E 001°33'1313.2
2014-Dec-20 10:34N 51°40' E 001°18'1212.1
2014-Dec-20 09:33N 51°33' E 001°03'1010.5
2014-Dec-20 08:34N 51°28' E 000°48'10 9.8
2014-Dec-20 07:34N 51°24' E 000°34'2 1.8
2014-Dec-20 06:31N 51°24' E 000°31'0 0.0
2014-Dec-20 05:31N 51°24' E 000°31'0 0.0
2014-Dec-20 04:31N 51°24' E 000°31'0 0.0
2014-Dec-20 03:31N 51°24' E 000°31'0 0.0
2014-Dec-20 02:31N 51°24' E 000°31'0 0.0
2014-Dec-20 01:31N 51°24' E 000°31'0 0.0
2014-Dec-20 00:31N 51°24' E 000°31'0 0.0
2014-Dec-19 23:31N 51°24' E 000°31'0 0.0
2014-Dec-19 22:28N 51°24' E 000°31'0 0.0
2014-Dec-19 21:22N 51°24' E 000°31'0 0.0
2014-Dec-19 20:31N 51°24' E 000°31'0 0.0
2014-Dec-19 19:31N 51°24' E 000°31'0 0.0
2014-Dec-19 18:31N 51°24' E 000°31'0 0.0
2014-Dec-19 17:31N 51°24' E 000°31'0 0.0
2014-Dec-19 16:31N 51°24' E 000°31'0 0.0
2014-Dec-19 15:31N 51°24' E 000°31'0 0.0
2014-Dec-19 14:28N 51°24' E 000°31'0 0.0
2014-Dec-19 13:31N 51°24' E 000°31'0 0.0
2014-Dec-19 12:31N 51°24' E 000°31'0 0.0
2014-Dec-19 11:31N 51°24' E 000°31'0 0.0
2014-Dec-19 10:31N 51°24' E 000°31'0 0.0
2014-Dec-19 09:31N 51°24' E 000°31'0 0.0
2014-Dec-19 08:31N 51°24' E 000°31'0 0.0
2014-Dec-19 07:31N 51°24' E 000°31'0 0.0
2014-Dec-19 06:31N 51°24' E 000°31'0 0.0
2014-Dec-19 05:31N 51°24' E 000°31'0 0.0
2014-Dec-19 04:31N 51°24' E 000°31'0 0.0
2014-Dec-19 03:31N 51°24' E 000°31'0 0.0
2014-Dec-19 02:31N 51°24' E 000°31'0 0.0
2014-Dec-19 01:28N 51°24' E 000°31'0 0.0
2014-Dec-19 00:31N 51°24' E 000°31'0 0.0
2014-Dec-18 23:31N 51°24' E 000°31'0 0.0
2014-Dec-18 22:31N 51°24' E 000°31'0 0.0
2014-Dec-18 21:31N 51°24' E 000°31'0 0.0
2014-Dec-18 20:31N 51°24' E 000°31'0 0.0
2014-Dec-18 19:31N 51°24' E 000°31'0 0.0
2014-Dec-18 18:31N 51°24' E 000°31'0 0.0
2014-Dec-18 17:28N 51°24' E 000°31'0 0.0
2014-Dec-18 16:31N 51°24' E 000°31'0 0.0
2014-Dec-18 15:31N 51°24' E 000°31'0 0.0
2014-Dec-18 14:31N 51°24' E 000°31'0 0.0
2014-Dec-18 13:31N 51°24' E 000°31'0 0.0
2014-Dec-18 12:31N 51°24' E 000°31'0 0.0
2014-Dec-18 11:31N 51°24' E 000°31'0 0.0
2014-Dec-18 10:28N 51°24' E 000°31'0 0.0
2014-Dec-18 09:28N 51°24' E 000°31'0 0.0
2014-Dec-18 08:31N 51°24' E 000°31'0 0.0
2014-Dec-18 07:32N 51°24' E 000°31'2 1.8
2014-Dec-18 06:34N 51°24' E 000°33'9 8.7
2014-Dec-18 05:33N 51°28' E 000°46'7 7.4
2014-Dec-18 04:33N 51°29' E 000°58'7 7.0
2014-Dec-18 03:33N 51°29' E 001°09'7 6.7
2014-Dec-18 02:33N 51°29' E 001°20'5 5.2
2014-Dec-18 01:33N 51°28' E 001°28'4 3.8
2014-Dec-18 00:34N 51°25' E 001°32'4 4.4
2014-Dec-17 23:33N 51°22' E 001°36'6 5.6
2014-Dec-17 22:34N 51°16' E 001°39'7 7.4
2014-Dec-17 21:33N 51°09' E 001°42'8 8.5
2014-Dec-17 20:34N 51°02' E 001°34'9 9.1
2014-Dec-17 19:33N 50°55' E 001°25'283 7.2
2014-Dec-16 04:18N 51°55' W 005°59'11211.4
2014-Dec-15 18:29N 53°46' W 005°58'1111.6
2014-Dec-15 17:29N 53°58' W 006°02'  
2014-Dec-12 20:28N 54°02' W 006°07'  

Dump ship's entire track history